Terminal Aerodrome Forecast
Issued by NWS

Home | Current Version | Previous Version | Text Only | Print | Product List | Glossary On
Versions: 1 2 3 4 5 6 7 8 9 10 11 12 13 14
000
FTAK31 PAFA 251736
TAFAOT
TAF
PAOT 251736Z 2518/2618 11010KT P6SM SCT021 BKN040
     FM252100 18015KT 5SM -RA BR BKN015 OVC025
     FM260000 16015KT 1 1/2SM -RA BR OVC007
     FM260800 21015KT 4SM -RA BR OVC015
     FM261300 32010KT 6SM -RA BR OVC050=

USA.gov is the U.S. government's official web portal to all federal, state and local government web resources and services.